sensor_id;sensor_type;location;lat;lon;timestamp;P1;durP1;ratioP1;P2;durP2;ratioP2
58820;SDS011;70670;52.476;13.334;2024-03-02T14:19:01;23.80;;;15.02;;
58820;SDS011;70670;52.476;13.334;2024-03-02T14:21:26;23.65;;;14.40;;
58820;SDS011;70670;52.476;13.334;2024-03-02T14:23:52;27.40;;;16.27;;
58820;SDS011;70670;52.476;13.334;2024-03-02T14:26:18;28.85;;;16.20;;
58820;SDS011;70670;52.476;13.334;2024-03-02T14:28:44;25.02;;;15.48;;
58820;SDS011;70670;52.476;13.334;2024-03-02T14:31:10;24.20;;;13.05;;
58820;SDS011;70670;52.476;13.334;2024-03-02T14:33:35;19.98;;;12.70;;
58820;SDS011;70670;52.476;13.334;2024-03-02T14:36:01;23.08;;;13.88;;
58820;SDS011;70670;52.476;13.334;2024-03-02T14:38:29;21.63;;;14.52;;
58820;SDS011;70670;52.476;13.334;2024-03-02T14:40:55;23.13;;;13.73;;
58820;SDS011;70670;52.476;13.334;2024-03-02T14:43:21;23.75;;;14.05;;
58820;SDS011;70670;52.476;13.334;2024-03-02T14:45:47;25.33;;;13.63;;
58820;SDS011;70670;52.476;13.334;2024-03-02T14:48:13;26.02;;;15.23;;
58820;SDS011;70670;52.476;13.334;2024-03-02T14:50:39;28.63;;;16.38;;
58820;SDS011;70670;52.476;13.334;2024-03-02T14:53:05;23.00;;;15.40;;
58820;SDS011;70670;52.476;13.334;2024-03-02T14:55:32;25.70;;;16.60;;
58820;SDS011;70670;52.476;13.334;2024-03-02T14:57:59;23.83;;;15.30;;
58820;SDS011;70670;52.476;13.334;2024-03-02T15:00:25;22.52;;;15.00;;
58820;SDS011;70670;52.476;13.334;2024-03-02T15:02:50;23.40;;;15.15;;
58820;SDS011;70670;52.476;13.334;2024-03-02T15:05:16;22.65;;;14.13;;
58820;SDS011;70670;52.476;13.334;2024-03-02T15:07:43;21.25;;;14.07;;
58820;SDS011;70670;52.476;13.334;2024-03-02T15:10:08;24.38;;;14.77;;
58820;SDS011;70670;52.476;13.334;2024-03-02T15:12:34;23.35;;;14.38;;
58820;SDS011;70670;52.476;13.334;2024-03-02T15:15:00;23.80;;;15.38;;
58820;SDS011;70670;52.476;13.334;2024-03-02T15:17:26;26.38;;;16.15;;
58820;SDS011;70670;52.476;13.334;2024-03-02T15:19:51;25.50;;;16.10;;
58820;SDS011;70670;52.476;13.334;2024-03-02T15:22:17;26.35;;;16.10;;
58820;SDS011;70670;52.476;13.334;2024-03-02T15:24:43;31.25;;;16.30;;
58820;SDS011;70670;52.476;13.334;2024-03-02T15:27:08;27.00;;;16.77;;
58820;SDS011;70670;52.476;13.334;2024-03-02T15:29:34;28.63;;;16.52;;
58820;SDS011;70670;52.476;13.334;2024-03-02T15:32:01;25.75;;;17.13;;
58820;SDS011;70670;52.476;13.334;2024-03-02T15:34:30;26.48;;;16.17;;
58820;SDS011;70670;52.476;13.334;2024-03-02T15:36:56;27.40;;;17.10;;
58820;SDS011;70670;52.476;13.334;2024-03-02T15:39:22;26.35;;;16.70;;
58820;SDS011;70670;52.476;13.334;2024-03-02T15:41:48;28.42;;;16.10;;
58820;SDS011;70670;52.476;13.334;2024-03-02T15:44:14;27.05;;;17.63;;
58820;SDS011;70670;52.476;13.334;2024-03-02T15:46:39;25.40;;;16.63;;
58820;SDS011;70670;52.476;13.334;2024-03-02T15:49:05;27.65;;;17.20;;
58820;SDS011;70670;52.476;13.334;2024-03-02T15:51:33;26.20;;;17.27;;
58820;SDS011;70670;52.476;13.334;2024-03-02T15:54:06;29.05;;;16.52;;
58820;SDS011;70670;52.476;13.334;2024-03-02T15:56:33;25.90;;;16.10;;
58820;SDS011;70670;52.476;13.334;2024-03-02T15:58:59;25.38;;;15.90;;
58820;SDS011;70670;52.476;13.334;2024-03-02T16:01:24;24.00;;;14.45;;
58820;SDS011;70670;52.476;13.334;2024-03-02T16:03:50;27.80;;;14.13;;
58820;SDS011;70670;52.476;13.334;2024-03-02T16:06:16;31.25;;;14.10;;
58820;SDS011;70670;52.476;13.334;2024-03-02T16:08:42;19.15;;;12.45;;
58820;SDS011;70670;52.476;13.334;2024-03-02T16:11:07;17.98;;;11.77;;
58820;SDS011;70670;52.476;13.334;2024-03-02T16:13:33;20.17;;;12.80;;
58820;SDS011;70670;52.476;13.334;2024-03-02T16:15:58;18.30;;;11.95;;
58820;SDS011;70670;52.476;13.334;2024-03-02T16:18:24;19.52;;;11.95;;
58820;SDS011;70670;52.476;13.334;2024-03-02T16:20:50;19.58;;;12.30;;
58820;SDS011;70670;52.476;13.334;2024-03-02T16:23:15;19.52;;;11.60;;
58820;SDS011;70670;52.476;13.334;2024-03-02T16:25:41;19.98;;;10.77;;
58820;SDS011;70670;52.476;13.334;2024-03-02T16:28:07;15.30;;;10.93;;
58820;SDS011;70670;52.476;13.334;2024-03-02T16:30:33;18.52;;;11.15;;
58820;SDS011;70670;52.476;13.334;2024-03-02T16:32:59;18.17;;;11.40;;
58820;SDS011;70670;52.476;13.334;2024-03-02T16:35:25;20.88;;;11.88;;
58820;SDS011;70670;52.476;13.334;2024-03-02T16:37:51;19.13;;;10.45;;
58820;SDS011;70670;52.476;13.334;2024-03-02T16:40:16;17.63;;;11.13;;
58820;SDS011;70670;52.476;13.334;2024-03-02T16:42:42;21.70;;;12.13;;
58820;SDS011;70670;52.476;13.334;2024-03-02T16:45:08;18.45;;;11.15;;
58820;SDS011;70670;52.476;13.334;2024-03-02T16:47:34;22.60;;;11.30;;
58820;SDS011;70670;52.476;13.334;2024-03-02T16:50:00;19.83;;;11.77;;
58820;SDS011;70670;52.476;13.334;2024-03-02T16:52:26;25.15;;;12.65;;
58820;SDS011;70670;52.476;13.334;2024-03-02T16:54:53;19.50;;;11.85;;
58820;SDS011;70670;52.476;13.334;2024-03-02T16:57:19;24.25;;;12.85;;
58820;SDS011;70670;52.476;13.334;2024-03-02T16:59:45;21.98;;;12.68;;
58820;SDS011;70670;52.476;13.334;2024-03-02T17:02:11;22.73;;;12.55;;
58820;SDS011;70670;52.476;13.334;2024-03-02T17:04:36;20.50;;;12.48;;
58820;SDS011;70670;52.476;13.334;2024-03-02T17:07:02;19.95;;;12.90;;
58820;SDS011;70670;52.476;13.334;2024-03-02T17:09:28;19.50;;;13.18;;
58820;SDS011;70670;52.476;13.334;2024-03-02T17:11:54;21.95;;;12.73;;
58820;SDS011;70670;52.476;13.334;2024-03-02T17:14:19;22.65;;;13.15;;
58820;SDS011;70670;52.476;13.334;2024-03-02T17:16:45;23.98;;;13.65;;
58820;SDS011;70670;52.476;13.334;2024-03-02T17:19:10;24.00;;;13.48;;
58820;SDS011;70670;52.476;13.334;2024-03-02T17:21:36;24.85;;;13.85;;
58820;SDS011;70670;52.476;13.334;2024-03-02T17:24:02;27.52;;;13.73;;
58820;SDS011;70670;52.476;13.334;2024-03-02T17:26:28;22.85;;;14.23;;
58820;SDS011;70670;52.476;13.334;2024-03-02T17:28:54;23.30;;;14.43;;
58820;SDS011;70670;52.476;13.334;2024-03-02T17:31:23;21.77;;;14.45;;
58820;SDS011;70670;52.476;13.334;2024-03-02T17:33:48;25.42;;;14.52;;
58820;SDS011;70670;52.476;13.334;2024-03-02T17:36:14;26.45;;;14.75;;
58820;SDS011;70670;52.476;13.334;2024-03-02T17:38:40;24.08;;;14.55;;
58820;SDS011;70670;52.476;13.334;2024-03-02T17:41:06;23.00;;;14.45;;
58820;SDS011;70670;52.476;13.334;2024-03-02T17:43:33;26.05;;;14.98;;
58820;SDS011;70670;52.476;13.334;2024-03-02T17:45:59;25.25;;;15.00;;
58820;SDS011;70670;52.476;13.334;2024-03-02T17:48:24;28.17;;;14.88;;
58820;SDS011;70670;52.476;13.334;2024-03-02T17:50:51;25.98;;;14.57;;
58820;SDS011;70670;52.476;13.334;2024-03-02T17:53:16;26.88;;;14.85;;
58820;SDS011;70670;52.476;13.334;2024-03-02T17:55:42;24.15;;;14.60;;
58820;SDS011;70670;52.476;13.334;2024-03-02T17:58:08;27.02;;;15.55;;
58820;SDS011;70670;52.476;13.334;2024-03-02T18:00:34;35.00;;;16.27;;
58820;SDS011;70670;52.476;13.334;2024-03-02T18:02:59;30.88;;;15.50;;
58820;SDS011;70670;52.476;13.334;2024-03-02T18:05:25;28.60;;;14.60;;
58820;SDS011;70670;52.476;13.334;2024-03-02T18:07:51;23.67;;;14.43;;
58820;SDS011;70670;52.476;13.334;2024-03-02T18:10:17;26.38;;;15.35;;
58820;SDS011;70670;52.476;13.334;2024-03-02T18:12:42;27.02;;;15.40;;
58820;SDS011;70670;52.476;13.334;2024-03-02T18:15:08;28.95;;;15.77;;
58820;SDS011;70670;52.476;13.334;2024-03-02T18:17:34;28.73;;;16.17;;
58820;SDS011;70670;52.476;13.334;2024-03-02T18:20:01;29.33;;;16.92;;
58820;SDS011;70670;52.476;13.334;2024-03-02T18:22:28;25.70;;;15.68;;
58820;SDS011;70670;52.476;13.334;2024-03-02T18:24:54;25.50;;;15.40;;
58820;SDS011;70670;52.476;13.334;2024-03-02T18:27:19;32.38;;;17.23;;
58820;SDS011;70670;52.476;13.334;2024-03-02T18:29:45;27.30;;;17.15;;
58820;SDS011;70670;52.476;13.334;2024-03-02T18:32:10;27.83;;;16.00;;
58820;SDS011;70670;52.476;13.334;2024-03-02T18:34:36;28.63;;;16.13;;
58820;SDS011;70670;52.476;13.334;2024-03-02T18:37:01;29.17;;;17.00;;
58820;SDS011;70670;52.476;13.334;2024-03-02T18:39:28;29.85;;;16.70;;
58820;SDS011;70670;52.476;13.334;2024-03-02T18:41:56;30.60;;;17.85;;
58820;SDS011;70670;52.476;13.334;2024-03-02T18:44:22;26.40;;;16.70;;
58820;SDS011;70670;52.476;13.334;2024-03-02T18:46:48;33.22;;;17.23;;
58820;SDS011;70670;52.476;13.334;2024-03-02T18:49:14;30.30;;;16.98;;
58820;SDS011;70670;52.476;13.334;2024-03-02T18:51:39;29.60;;;17.77;;
58820;SDS011;70670;52.476;13.334;2024-03-02T18:54:07;32.90;;;18.33;;
58820;SDS011;70670;52.476;13.334;2024-03-02T18:56:33;32.63;;;17.88;;
58820;SDS011;70670;52.476;13.334;2024-03-02T18:58:59;31.27;;;17.10;;
58820;SDS011;70670;52.476;13.334;2024-03-02T19:01:24;35.75;;;18.35;;
58820;SDS011;70670;52.476;13.334;2024-03-02T19:03:50;35.40;;;17.05;;
58820;SDS011;70670;52.476;13.334;2024-03-02T19:06:16;27.67;;;17.80;;
58820;SDS011;70670;52.476;13.334;2024-03-02T19:08:42;28.73;;;17.67;;
58820;SDS011;70670;52.476;13.334;2024-03-02T19:11:14;39.50;;;18.08;;
58820;SDS011;70670;52.476;13.334;2024-03-02T19:13:41;28.90;;;17.20;;
58820;SDS011;70670;52.476;13.334;2024-03-02T19:16:11;29.27;;;17.45;;
58820;SDS011;70670;52.476;13.334;2024-03-02T19:18:38;34.33;;;19.13;;
58820;SDS011;70670;52.476;13.334;2024-03-02T19:21:04;32.33;;;18.60;;
58820;SDS011;70670;52.476;13.334;2024-03-02T19:23:29;27.77;;;17.63;;
58820;SDS011;70670;52.476;13.334;2024-03-02T19:25:55;29.40;;;18.13;;
58820;SDS011;70670;52.476;13.334;2024-03-02T19:28:22;31.45;;;18.30;;
58820;SDS011;70670;52.476;13.334;2024-03-02T19:30:47;33.92;;;18.45;;
58820;SDS011;70670;52.476;13.334;2024-03-02T19:33:13;34.00;;;18.80;;
58820;SDS011;70670;52.476;13.334;2024-03-02T19:38:12;34.28;;;18.95;;
58820;SDS011;70670;52.476;13.334;2024-03-02T19:40:38;31.23;;;19.40;;
58820;SDS011;70670;52.476;13.334;2024-03-02T19:43:06;34.78;;;19.13;;
58820;SDS011;70670;52.476;13.334;2024-03-02T19:45:32;32.30;;;18.83;;
58820;SDS011;70670;52.476;13.334;2024-03-02T19:47:58;33.17;;;19.08;;
58820;SDS011;70670;52.476;13.334;2024-03-02T19:50:24;30.73;;;19.42;;
58820;SDS011;70670;52.476;13.334;2024-03-02T19:52:49;32.70;;;18.85;;
58820;SDS011;70670;52.476;13.334;2024-03-02T19:55:17;34.63;;;19.42;;
58820;SDS011;70670;52.476;13.334;2024-03-02T19:57:43;33.53;;;18.02;;
58820;SDS011;70670;52.476;13.334;2024-03-02T20:00:11;32.53;;;18.45;;
58820;SDS011;70670;52.476;13.334;2024-03-02T20:02:38;35.65;;;20.00;;
58820;SDS011;70670;52.476;13.334;2024-03-02T20:05:04;35.28;;;20.13;;
58820;SDS011;70670;52.476;13.334;2024-03-02T20:07:30;35.35;;;19.30;;
58820;SDS011;70670;52.476;13.334;2024-03-02T20:09:56;30.58;;;17.70;;
58820;SDS011;70670;52.476;13.334;2024-03-02T20:12:22;36.33;;;19.80;;
58820;SDS011;70670;52.476;13.334;2024-03-02T20:14:48;34.28;;;18.10;;
58820;SDS011;70670;52.476;13.334;2024-03-02T20:17:14;31.35;;;18.30;;
58820;SDS011;70670;52.476;13.334;2024-03-02T20:19:40;27.92;;;17.65;;
58820;SDS011;70670;52.476;13.334;2024-03-02T20:22:06;32.70;;;18.42;;
58820;SDS011;70670;52.476;13.334;2024-03-02T20:24:32;30.63;;;17.52;;
58820;SDS011;70670;52.476;13.334;2024-03-02T20:26:58;35.53;;;18.63;;
58820;SDS011;70670;52.476;13.334;2024-03-02T20:29:23;30.48;;;18.23;;
58820;SDS011;70670;52.476;13.334;2024-03-02T20:31:49;33.38;;;18.70;;
58820;SDS011;70670;52.476;13.334;2024-03-02T20:34:14;30.33;;;18.00;;
58820;SDS011;70670;52.476;13.334;2024-03-02T20:36:43;34.88;;;18.63;;
58820;SDS011;70670;52.476;13.334;2024-03-02T20:39:09;33.38;;;18.45;;
58820;SDS011;70670;52.476;13.334;2024-03-02T20:41:35;33.08;;;18.45;;
58820;SDS011;70670;52.476;13.334;2024-03-02T20:44:01;36.42;;;20.17;;
58820;SDS011;70670;52.476;13.334;2024-03-02T20:46:29;34.83;;;19.15;;
58820;SDS011;70670;52.476;13.334;2024-03-02T20:48:54;39.45;;;20.23;;
58820;SDS011;70670;52.476;13.334;2024-03-02T20:51:22;30.95;;;20.20;;
58820;SDS011;70670;52.476;13.334;2024-03-02T20:53:54;38.45;;;21.38;;
58820;SDS011;70670;52.476;13.334;2024-03-02T20:56:22;42.90;;;21.17;;
58820;SDS011;70670;52.476;13.334;2024-03-02T20:58:48;34.95;;;20.98;;
58820;SDS011;70670;52.476;13.334;2024-03-02T21:01:13;35.67;;;20.42;;
58820;SDS011;70670;52.476;13.334;2024-03-02T21:03:39;36.22;;;21.95;;
58820;SDS011;70670;52.476;13.334;2024-03-02T21:06:06;37.92;;;21.77;;
58820;SDS011;70670;52.476;13.334;2024-03-02T21:08:31;37.75;;;21.60;;
58820;SDS011;70670;52.476;13.334;2024-03-02T21:10:57;44.10;;;22.95;;
58820;SDS011;70670;52.476;13.334;2024-03-02T21:13:23;38.58;;;23.15;;
58820;SDS011;70670;52.476;13.334;2024-03-02T21:15:48;42.22;;;22.85;;
58820;SDS011;70670;52.476;13.334;2024-03-02T21:18:14;40.20;;;22.48;;
58820;SDS011;70670;52.476;13.334;2024-03-02T21:20:40;41.00;;;22.20;;
58820;SDS011;70670;52.476;13.334;2024-03-02T21:23:05;43.63;;;22.98;;
58820;SDS011;70670;52.476;13.334;2024-03-02T21:25:36;39.67;;;23.20;;
58820;SDS011;70670;52.476;13.334;2024-03-02T21:28:02;42.97;;;23.58;;
58820;SDS011;70670;52.476;13.334;2024-03-02T21:30:28;38.22;;;22.15;;
58820;SDS011;70670;52.476;13.334;2024-03-02T21:32:55;42.10;;;23.40;;
58820;SDS011;70670;52.476;13.334;2024-03-02T21:35:21;43.22;;;23.40;;
58820;SDS011;70670;52.476;13.334;2024-03-02T21:37:47;45.58;;;23.35;;
58820;SDS011;70670;52.476;13.334;2024-03-02T21:40:13;39.63;;;23.83;;
58820;SDS011;70670;52.476;13.334;2024-03-02T21:42:39;42.80;;;22.67;;
58820;SDS011;70670;52.476;13.334;2024-03-02T21:45:05;44.22;;;23.42;;
58820;SDS011;70670;52.476;13.334;2024-03-02T21:47:31;39.17;;;22.30;;
58820;SDS011;70670;52.476;13.334;2024-03-02T21:49:57;38.78;;;22.77;;
58820;SDS011;70670;52.476;13.334;2024-03-02T21:52:22;43.45;;;22.70;;
58820;SDS011;70670;52.476;13.334;2024-03-02T21:54:48;44.78;;;22.70;;
58820;SDS011;70670;52.476;13.334;2024-03-02T21:57:14;41.22;;;22.92;;
58820;SDS011;70670;52.476;13.334;2024-03-02T21:59:45;39.65;;;22.40;;
58820;SDS011;70670;52.476;13.334;2024-03-02T22:02:11;43.55;;;24.23;;
58820;SDS011;70670;52.476;13.334;2024-03-02T22:04:37;39.83;;;22.30;;
58820;SDS011;70670;52.476;13.334;2024-03-02T22:07:02;44.60;;;22.50;;
58820;SDS011;70670;52.476;13.334;2024-03-02T22:09:28;42.50;;;23.02;;
58820;SDS011;70670;52.476;13.334;2024-03-02T22:11:54;41.35;;;23.02;;
58820;SDS011;70670;52.476;13.334;2024-03-02T22:14:20;42.47;;;23.70;;
58820;SDS011;70670;52.476;13.334;2024-03-02T22:16:45;42.47;;;25.45;;
58820;SDS011;70670;52.476;13.334;2024-03-02T22:19:12;40.55;;;24.27;;
58820;SDS011;70670;52.476;13.334;2024-03-02T22:21:37;41.13;;;23.33;;
58820;SDS011;70670;52.476;13.334;2024-03-02T22:24:03;39.75;;;23.67;;
58820;SDS011;70670;52.476;13.334;2024-03-02T22:26:29;37.40;;;22.90;;
58820;SDS011;70670;52.476;13.334;2024-03-02T22:28:55;44.53;;;23.92;;
58820;SDS011;70670;52.476;13.334;2024-03-02T22:31:20;43.45;;;24.48;;
58820;SDS011;70670;52.476;13.334;2024-03-02T22:33:46;39.97;;;23.10;;
58820;SDS011;70670;52.476;13.334;2024-03-02T22:36:12;41.20;;;23.10;;
58820;SDS011;70670;52.476;13.334;2024-03-02T22:38:38;38.88;;;23.95;;
58820;SDS011;70670;52.476;13.334;2024-03-02T22:41:03;40.25;;;22.90;;
58820;SDS011;70670;52.476;13.334;2024-03-02T22:43:29;38.40;;;23.33;;
58820;SDS011;70670;52.476;13.334;2024-03-02T22:45:55;38.70;;;24.00;;
58820;SDS011;70670;52.476;13.334;2024-03-02T22:48:21;41.22;;;24.27;;
58820;SDS011;70670;52.476;13.334;2024-03-02T22:50:47;46.13;;;25.00;;
58820;SDS011;70670;52.476;13.334;2024-03-02T22:53:13;43.97;;;25.48;;
58820;SDS011;70670;52.476;13.334;2024-03-02T22:55:38;39.72;;;23.88;;
58820;SDS011;70670;52.476;13.334;2024-03-02T22:58:04;39.47;;;22.98;;
58820;SDS011;70670;52.476;13.334;2024-03-02T23:00:30;40.35;;;23.75;;
58820;SDS011;70670;52.476;13.334;2024-03-02T23:02:56;40.05;;;23.42;;
58820;SDS011;70670;52.476;13.334;2024-03-02T23:05:22;41.60;;;24.00;;
58820;SDS011;70670;52.476;13.334;2024-03-02T23:07:48;42.50;;;24.60;;
58820;SDS011;70670;52.476;13.334;2024-03-02T23:10:13;41.15;;;23.65;;
58820;SDS011;70670;52.476;13.334;2024-03-02T23:12:39;40.63;;;24.60;;
58820;SDS011;70670;52.476;13.334;2024-03-02T23:15:04;39.55;;;24.42;;
58820;SDS011;70670;52.476;13.334;2024-03-02T23:17:31;44.10;;;24.50;;
58820;SDS011;70670;52.476;13.334;2024-03-02T23:19:56;42.15;;;24.52;;
58820;SDS011;70670;52.476;13.334;2024-03-02T23:22:22;45.17;;;26.00;;
58820;SDS011;70670;52.476;13.334;2024-03-02T23:24:48;42.00;;;25.42;;
58820;SDS011;70670;52.476;13.334;2024-03-02T23:27:14;43.85;;;25.48;;
58820;SDS011;70670;52.476;13.334;2024-03-02T23:29:39;45.03;;;25.45;;
58820;SDS011;70670;52.476;13.334;2024-03-02T23:32:06;46.20;;;26.63;;
58820;SDS011;70670;52.476;13.334;2024-03-02T23:34:32;46.55;;;25.98;;
58820;SDS011;70670;52.476;13.334;2024-03-02T23:36:58;50.90;;;27.55;;
58820;SDS011;70670;52.476;13.334;2024-03-02T23:39:24;46.75;;;27.90;;
58820;SDS011;70670;52.476;13.334;2024-03-02T23:42:08;45.13;;;27.70;;
58820;SDS011;70670;52.476;13.334;2024-03-02T23:44:34;49.17;;;28.27;;
58820;SDS011;70670;52.476;13.334;2024-03-02T23:47:00;48.55;;;26.60;;
58820;SDS011;70670;52.476;13.334;2024-03-02T23:49:25;52.33;;;29.50;;
58820;SDS011;70670;52.476;13.334;2024-03-02T23:51:52;52.50;;;30.13;;
58820;SDS011;70670;52.476;13.334;2024-03-02T23:54:18;55.47;;;30.52;;
58820;SDS011;70670;52.476;13.334;2024-03-02T23:56:45;58.30;;;30.85;;
58820;SDS011;70670;52.476;13.334;2024-03-02T23:59:11;59.00;;;32.85;;
